Time;durP1;ratioP1;P1;durP2;ratioP2;P2;SDS_P1;SDS_P2;PMS_P1;PMS_P2;Temp;Humidity;BMP_temperature;BMP_pressure;BME280_temperature;BME280_humidity;BME280_pressure;Samples;Min_cycle;Max_cycle;Signal;HPM_P1;HPM_P2
2022/11/23 00:01:21;;;;;;;55.78;27.13;;;;;;;;;;5053699;28;20052;-78
2022/11/23 00:03:48;;;;;;;53.70;27.42;;;;;;;;;;5038038;28;20029;-79
2022/11/23 00:06:14;;;;;;;53.63;26.85;;;;;;;;;;5062293;28;20051;-79
2022/11/23 00:08:39;;;;;;;52.55;26.42;;;;;;;;;;5054699;28;20426;-78
2022/11/23 00:11:05;;;;;;;50.47;26.67;;;;;;;;;;5037015;28;20148;-79
2022/11/23 00:13:30;;;;;;;51.08;26.55;;;;;;;;;;5054657;28;20029;-78
2022/11/23 00:15:56;;;;;;;50.10;26.70;;;;;;;;;;5054012;28;20033;-79
2022/11/23 00:18:21;;;;;;;52.28;26.35;;;;;;;;;;5054903;28;20094;-78
2022/11/23 00:20:47;;;;;;;51.70;26.00;;;;;;;;;;5053681;28;20044;-79
2022/11/23 00:23:12;;;;;;;54.30;29.02;;;;;;;;;;5053585;28;20029;-79
2022/11/23 00:25:37;;;;;;;56.35;28.70;;;;;;;;;;5054579;28;20020;-79
2022/11/23 00:28:03;;;;;;;56.35;28.13;;;;;;;;;;5044562;28;20029;-79
2022/11/23 00:30:30;;;;;;;54.03;27.58;;;;;;;;;;5053365;28;20033;-78
2022/11/23 00:32:55;;;;;;;57.75;28.15;;;;;;;;;;5053128;28;20131;-78
2022/11/23 00:35:22;;;;;;;56.47;28.38;;;;;;;;;;5037104;28;20669;-78
2022/11/23 00:37:48;;;;;;;53.97;27.92;;;;;;;;;;5037289;28;20174;-78
2022/11/23 00:40:13;;;;;;;53.88;26.60;;;;;;;;;;5020223;28;20124;-79
2022/11/23 00:42:39;;;;;;;50.85;27.13;;;;;;;;;;5052890;28;20044;-78
2022/11/23 00:45:05;;;;;;;46.92;25.42;;;;;;;;;;5054532;28;20029;-78
2022/11/23 00:47:30;;;;;;;43.70;24.42;;;;;;;;;;5059508;28;20040;-78
2022/11/23 00:49:55;;;;;;;50.03;25.83;;;;;;;;;;5060565;28;20132;-78
2022/11/23 00:52:21;;;;;;;54.58;26.55;;;;;;;;;;5053049;28;20025;-78
2022/11/23 00:54:47;;;;;;;50.90;26.05;;;;;;;;;;5054523;28;20021;-78
2022/11/23 00:57:12;;;;;;;50.95;25.52;;;;;;;;;;5054480;28;20036;-78
2022/11/23 00:59:38;;;;;;;49.90;25.45;;;;;;;;;;5056451;28;20039;-79
2022/11/23 01:02:03;;;;;;;52.47;26.42;;;;;;;;;;5054124;28;20458;-79
2022/11/23 01:04:29;;;;;;;53.65;25.52;;;;;;;;;;5053110;28;20025;-79
2022/11/23 01:06:55;;;;;;;53.90;27.45;;;;;;;;;;5052778;28;20021;-79
2022/11/23 01:09:23;;;;;;;52.90;26.00;;;;;;;;;;5038667;28;20504;-78
2022/11/23 01:11:49;;;;;;;51.33;25.05;;;;;;;;;;5040401;28;20354;-77
2022/11/23 01:14:16;;;;;;;52.95;26.23;;;;;;;;;;5056668;28;20085;-78
2022/11/23 01:16:41;;;;;;;55.92;26.52;;;;;;;;;;5056073;28;20023;-78
2022/11/23 01:19:09;;;;;;;51.35;25.65;;;;;;;;;;5058287;28;20024;-79
2022/11/23 01:21:35;;;;;;;55.13;25.48;;;;;;;;;;5093125;28;20024;-78
2022/11/23 01:24:07;;;;;;;47.35;24.58;;;;;;;;;;5094040;28;20034;-78
2022/11/23 01:26:33;;;;;;;53.55;25.42;;;;;;;;;;5093801;28;20112;-78
2022/11/23 01:28:58;;;;;;;53.00;25.88;;;;;;;;;;5076177;28;20059;-78
2022/11/23 01:31:24;;;;;;;52.05;24.23;;;;;;;;;;5104969;28;20364;-78
2022/11/23 01:33:57;;;;;;;47.47;24.30;;;;;;;;;;5093869;28;20356;-79
2022/11/23 01:36:24;;;;;;;49.53;24.70;;;;;;;;;;5093924;28;20028;-78
2022/11/23 01:38:49;;;;;;;49.72;24.40;;;;;;;;;;5093939;28;20362;-79
2022/11/23 01:41:26;;;;;;;50.75;24.55;;;;;;;;;;5075834;28;20024;-78
2022/11/23 01:43:51;;;;;;;52.58;25.20;;;;;;;;;;5075838;28;20524;-78
2022/11/23 01:46:17;;;;;;;50.58;24.95;;;;;;;;;;5094075;28;20123;-78
2022/11/23 01:48:53;;;;;;;52.05;25.80;;;;;;;;;;5075930;28;20432;-78
2022/11/23 01:51:30;;;;;;;53.50;25.80;;;;;;;;;;5079664;28;20032;-79
2022/11/23 01:53:58;;;;;;;50.40;25.08;;;;;;;;;;5058680;28;20099;-78
2022/11/23 01:56:27;;;;;;;54.90;25.63;;;;;;;;;;5075743;28;20407;-77
2022/11/23 01:58:53;;;;;;;54.08;26.15;;;;;;;;;;5075677;28;20035;-78
2022/11/23 02:01:18;;;;;;;48.35;24.73;;;;;;;;;;5058932;28;20122;-78
2022/11/23 02:03:45;;;;;;;49.60;24.85;;;;;;;;;;5075716;28;20024;-78
2022/11/23 02:06:16;;;;;;;44.45;22.80;;;;;;;;;;5059096;28;20024;-78
2022/11/23 02:08:41;;;;;;;54.38;25.75;;;;;;;;;;5058703;28;20109;-78
2022/11/23 02:11:07;;;;;;;51.72;25.85;;;;;;;;;;5080548;28;20048;-79
2022/11/23 02:13:32;;;;;;;52.90;25.45;;;;;;;;;;5078936;28;20076;-78
2022/11/23 02:15:58;;;;;;;52.17;24.70;;;;;;;;;;5058871;28;20020;-77
2022/11/23 02:18:28;;;;;;;46.40;24.20;;;;;;;;;;5042253;28;20034;-79
2022/11/23 02:20:54;;;;;;;;;;;;;;;;;;5076174;28;20035;-79
2022/11/23 02:23:57;;;;;;;55.95;25.83;;;;;;;;;;5075111;28;19912;-78
2022/11/23 02:26:30;;;;;;;51.17;24.65;;;;;;;;;;5093502;28;20103;-79
2022/11/23 02:29:21;;;;;;;51.30;24.42;;;;;;;;;;5075571;28;20035;-78
2022/11/23 02:31:47;;;;;;;52.15;25.88;;;;;;;;;;5049216;28;20042;-78
2022/11/23 02:34:12;;;;;;;54.30;27.02;;;;;;;;;;5064966;28;20123;-79
2022/11/23 02:36:41;;;;;;;56.05;27.52;;;;;;;;;;5078916;28;20050;-78
2022/11/23 02:39:09;;;;;;;61.60;27.83;;;;;;;;;;5062169;28;20092;-79
2022/11/23 02:41:38;;;;;;;58.20;27.75;;;;;;;;;;5062120;28;20039;-79
2022/11/23 02:44:03;;;;;;;66.40;31.17;;;;;;;;;;5062296;28;20024;-78
2022/11/23 02:46:28;;;;;;;64.38;29.38;;;;;;;;;;5078842;28;20077;-78
2022/11/23 02:48:54;;;;;;;65.45;29.70;;;;;;;;;;5053525;28;20360;-78
2022/11/23 02:51:19;;;;;;;63.35;29.60;;;;;;;;;;5056458;28;20403;-78
2022/11/23 02:53:45;;;;;;;59.13;28.67;;;;;;;;;;5058535;28;20021;-79
2022/11/23 02:56:10;;;;;;;57.75;27.77;;;;;;;;;;5056363;28;20021;-79
2022/11/23 02:58:35;;;;;;;56.70;27.83;;;;;;;;;;5056371;28;20331;-79
2022/11/23 03:01:01;;;;;;;55.97;28.25;;;;;;;;;;5038721;28;20397;-79
2022/11/23 03:03:26;;;;;;;58.40;29.58;;;;;;;;;;5056060;28;20375;-79
2022/11/23 03:05:52;;;;;;;57.47;28.73;;;;;;;;;;5055896;28;20032;-78
2022/11/23 03:08:17;;;;;;;58.88;29.60;;;;;;;;;;5056287;28;20068;-78
2022/11/23 03:10:43;;;;;;;59.88;29.00;;;;;;;;;;5055837;28;20060;-78
2022/11/23 03:13:08;;;;;;;58.38;27.67;;;;;;;;;;5038515;28;20347;-78
2022/11/23 03:15:33;;;;;;;58.55;27.08;;;;;;;;;;5042734;28;20029;-79
2022/11/23 03:17:59;;;;;;;61.40;30.50;;;;;;;;;;5021664;28;20031;-79
2022/11/23 03:20:24;;;;;;;67.05;31.85;;;;;;;;;;5021618;28;20032;-79
2022/11/23 03:22:50;;;;;;;59.55;29.38;;;;;;;;;;5056168;28;20025;-78
2022/11/23 03:25:15;;;;;;;52.60;27.52;;;;;;;;;;5056022;28;20143;-78
2022/11/23 03:27:41;;;;;;;55.55;27.35;;;;;;;;;;5038293;28;20079;-78
2022/11/23 03:30:08;;;;;;;56.90;27.70;;;;;;;;;;5037952;28;20039;-79
2022/11/23 03:32:34;;;;;;;55.25;27.92;;;;;;;;;;5021844;28;20104;-79
2022/11/23 03:35:00;;;;;;;57.13;27.23;;;;;;;;;;5027935;28;20419;-78
2022/11/23 03:37:26;;;;;;;56.40;27.50;;;;;;;;;;5022186;28;20454;-79
2022/11/23 03:39:51;;;;;;;53.85;27.48;;;;;;;;;;5063701;28;20027;-79
2022/11/23 03:42:17;;;;;;;51.05;26.67;;;;;;;;;;5040993;28;20021;-78
2022/11/23 03:44:42;;;;;;;54.10;26.73;;;;;;;;;;5056835;28;20028;-77
2022/11/23 03:47:08;;;;;;;53.30;26.98;;;;;;;;;;5058318;28;20127;-78
2022/11/23 03:49:34;;;;;;;57.17;28.17;;;;;;;;;;5057619;28;20353;-78
2022/11/23 03:52:00;;;;;;;56.92;28.13;;;;;;;;;;5057814;28;20089;-79
2022/11/23 03:54:25;;;;;;;53.20;27.58;;;;;;;;;;5057620;28;20024;-78
2022/11/23 03:56:51;;;;;;;53.30;26.42;;;;;;;;;;5078737;28;20055;-79
2022/11/23 03:59:17;;;;;;;53.08;26.73;;;;;;;;;;5057959;28;20031;-79
2022/11/23 04:01:43;;;;;;;53.65;27.08;;;;;;;;;;5075130;28;20170;-78
2022/11/23 04:04:09;;;;;;;53.22;26.15;;;;;;;;;;5040545;28;20064;-78
2022/11/23 04:06:34;;;;;;;54.05;27.88;;;;;;;;;;5075505;28;20086;-78
2022/11/23 04:09:00;;;;;;;54.42;27.25;;;;;;;;;;5062466;28;20024;-78
2022/11/23 04:11:25;;;;;;;59.85;29.42;;;;;;;;;;5065968;28;20098;-78
2022/11/23 04:13:50;;;;;;;58.22;28.52;;;;;;;;;;5075166;28;20516;-79
2022/11/23 04:16:16;;;;;;;53.47;25.58;;;;;;;;;;5081806;28;20123;-78
2022/11/23 04:18:41;;;;;;;57.13;27.40;;;;;;;;;;5059582;28;20028;-79
2022/11/23 04:21:07;;;;;;;55.15;26.83;;;;;;;;;;5074741;28;20367;-79
2022/11/23 04:23:32;;;;;;;54.97;26.63;;;;;;;;;;5075290;28;20067;-78
2022/11/23 04:25:58;;;;;;;55.70;27.10;;;;;;;;;;5074644;28;20036;-79
2022/11/23 04:28:23;;;;;;;54.28;26.40;;;;;;;;;;5074817;28;20029;-78
2022/11/23 04:30:48;;;;;;;55.33;25.63;;;;;;;;;;5074565;28;20032;-79
2022/11/23 04:33:14;;;;;;;56.58;26.38;;;;;;;;;;5040071;28;20055;-78
2022/11/23 04:35:39;;;;;;;59.25;27.15;;;;;;;;;;5074192;28;20036;-78
2022/11/23 04:38:05;;;;;;;57.60;26.30;;;;;;;;;;5070522;28;20016;-79
2022/11/23 04:40:30;;;;;;;53.08;24.92;;;;;;;;;;5076904;28;20054;-78
2022/11/23 04:42:57;;;;;;;57.47;27.00;;;;;;;;;;5060709;28;20027;-78
2022/11/23 04:45:22;;;;;;;55.08;26.33;;;;;;;;;;5075330;28;20029;-79
2022/11/23 04:47:47;;;;;;;53.80;26.70;;;;;;;;;;5056220;28;20450;-78
2022/11/23 04:50:13;;;;;;;55.53;26.20;;;;;;;;;;5056530;28;20105;-78
2022/11/23 04:52:38;;;;;;;56.40;25.63;;;;;;;;;;5039804;28;20082;-79
2022/11/23 04:55:04;;;;;;;48.85;24.25;;;;;;;;;;5056073;28;20055;-78
2022/11/23 04:57:30;;;;;;;55.10;25.25;;;;;;;;;;5074335;28;20031;-79
2022/11/23 04:59:55;;;;;;;53.72;24.48;;;;;;;;;;5081797;28;20030;-78
2022/11/23 05:02:21;;;;;;;53.90;24.23;;;;;;;;;;5074187;28;20021;-78
2022/11/23 05:04:46;;;;;;;51.53;24.52;;;;;;;;;;5074074;28;20108;-78
2022/11/23 05:07:11;;;;;;;49.60;23.95;;;;;;;;;;5073917;28;20514;-79
2022/11/23 05:09:37;;;;;;;48.28;24.33;;;;;;;;;;5073823;28;20507;-79
2022/11/23 05:12:02;;;;;;;54.65;25.48;;;;;;;;;;5078540;28;20008;-86
2022/11/23 05:14:28;;;;;;;53.13;24.65;;;;;;;;;;5081627;28;20052;-88
2022/11/23 05:16:53;;;;;;;54.63;23.67;;;;;;;;;;5071447;28;20368;-79
2022/11/23 05:19:19;;;;;;;43.15;22.92;;;;;;;;;;5078771;28;20404;-79
2022/11/23 05:21:44;;;;;;;45.10;23.65;;;;;;;;;;5077091;28;20101;-79
2022/11/23 05:24:10;;;;;;;51.85;24.65;;;;;;;;;;5073196;28;20079;-79
2022/11/23 05:26:35;;;;;;;46.40;23.20;;;;;;;;;;5073255;28;20056;-79
2022/11/23 05:29:00;;;;;;;51.72;23.55;;;;;;;;;;5055826;28;20028;-79
2022/11/23 05:31:26;;;;;;;44.00;22.45;;;;;;;;;;5072838;28;20043;-79
2022/11/23 05:33:51;;;;;;;43.50;22.38;;;;;;;;;;5073378;28;20081;-78
2022/11/23 05:36:17;;;;;;;43.88;22.90;;;;;;;;;;5073181;28;20032;-79
2022/11/23 05:38:42;;;;;;;51.05;24.73;;;;;;;;;;5074018;28;20112;-78
2022/11/23 05:41:08;;;;;;;48.45;23.55;;;;;;;;;;5081887;28;20472;-79
2022/11/23 05:43:33;;;;;;;49.83;23.67;;;;;;;;;;5073575;28;20135;-79
2022/11/23 05:45:59;;;;;;;48.80;23.40;;;;;;;;;;5038415;28;20434;-79
2022/11/23 05:48:25;;;;;;;54.70;26.83;;;;;;;;;;5069864;28;20428;-77
2022/11/23 05:50:50;;;;;;;59.17;26.88;;;;;;;;;;5058387;28;20037;-79
2022/11/23 05:53:16;;;;;;;56.33;29.52;;;;;;;;;;5046843;28;20036;-78
2022/11/23 05:55:42;;;;;;;57.22;28.95;;;;;;;;;;5044151;28;20028;-77
2022/11/23 05:58:07;;;;;;;57.50;30.23;;;;;;;;;;5028886;28;20037;-80
2022/11/23 06:00:42;;;;;;;60.03;31.98;;;;;;;;;;5046368;28;20699;-79
2022/11/23 06:03:07;;;;;;;60.72;28.40;;;;;;;;;;5056523;28;20029;-78
2022/11/23 06:05:33;;;;;;;54.25;29.65;;;;;;;;;;5060814;28;20036;-79
2022/11/23 06:07:58;;;;;;;56.92;28.92;;;;;;;;;;5052097;28;20637;-77
2022/11/23 06:10:24;;;;;;;53.92;27.52;;;;;;;;;;5047071;28;20049;-79
2022/11/23 06:12:50;;;;;;;50.22;25.83;;;;;;;;;;5032710;28;20365;-77
2022/11/23 06:15:16;;;;;;;51.78;26.98;;;;;;;;;;5051338;28;20462;-77
2022/11/23 06:17:41;;;;;;;193.43;124.40;;;;;;;;;;5020043;28;20039;-77
2022/11/23 06:20:07;;;;;;;112.82;70.40;;;;;;;;;;5055806;28;20035;-78
2022/11/23 06:22:33;;;;;;;147.63;92.22;;;;;;;;;;5050600;28;20108;-77
2022/11/23 06:24:59;;;;;;;169.35;104.85;;;;;;;;;;5041176;28;20136;-79
2022/11/23 06:27:24;;;;;;;92.88;53.85;;;;;;;;;;5076491;28;20469;-77
2022/11/23 06:29:50;;;;;;;56.70;28.55;;;;;;;;;;5045224;28;20039;-78
2022/11/23 06:32:16;;;;;;;48.42;27.65;;;;;;;;;;5047940;28;20070;-78
2022/11/23 06:34:42;;;;;;;50.65;27.02;;;;;;;;;;5040628;28;20485;-80
2022/11/23 06:37:07;;;;;;;48.80;25.83;;;;;;;;;;5060952;28;20039;-77
2022/11/23 06:39:33;;;;;;;47.78;25.10;;;;;;;;;;5044041;28;20060;-79
2022/11/23 06:41:59;;;;;;;51.03;26.17;;;;;;;;;;5073494;28;20052;-79
2022/11/23 06:44:42;;;;;;;49.72;25.67;;;;;;;;;;5044488;28;20055;-78
2022/11/23 06:47:08;;;;;;;47.85;23.85;;;;;;;;;;5056773;28;20072;-79
2022/11/23 06:49:34;;;;;;;43.33;22.33;;;;;;;;;;5040702;28;20068;-79
2022/11/23 06:52:00;;;;;;;41.53;22.77;;;;;;;;;;5036717;28;20036;-80
2022/11/23 06:54:26;;;;;;;40.45;22.63;;;;;;;;;;5072531;28;20024;-81
2022/11/23 06:56:54;;;;;;;45.08;22.55;;;;;;;;;;5020889;28;20028;-82
2022/11/23 06:59:23;;;;;;;42.25;21.90;;;;;;;;;;5041725;28;20055;-78
2022/11/23 07:01:49;;;;;;;40.45;21.73;;;;;;;;;;5056682;28;20538;-80
2022/11/23 07:04:15;;;;;;;42.15;22.88;;;;;;;;;;5045367;28;20324;-80
2022/11/23 07:06:40;;;;;;;48.75;25.73;;;;;;;;;;5064722;28;20040;-81
2022/11/23 07:09:06;;;;;;;60.92;35.88;;;;;;;;;;5042168;28;20096;-80
2022/11/23 07:11:31;;;;;;;63.33;31.92;;;;;;;;;;5067345;28;20052;-79
2022/11/23 07:13:57;;;;;;;47.53;25.15;;;;;;;;;;5032938;28;20091;-81
2022/11/23 07:16:25;;;;;;;48.45;25.33;;;;;;;;;;5064163;28;20029;-81
2022/11/23 07:18:51;;;;;;;48.00;25.92;;;;;;;;;;5059115;28;20043;-78
2022/11/23 07:21:16;;;;;;;47.83;28.10;;;;;;;;;;5046649;28;20063;-81
2022/11/23 07:23:42;;;;;;;57.17;32.35;;;;;;;;;;5050638;28;20041;-80
2022/11/23 07:26:08;;;;;;;57.35;31.75;;;;;;;;;;5063317;28;20032;-80
2022/11/23 07:28:34;;;;;;;47.95;26.15;;;;;;;;;;5041453;28;20430;-80
2022/11/23 07:31:05;;;;;;;52.42;27.98;;;;;;;;;;5041552;28;20114;-80
2022/11/23 07:33:31;;;;;;;50.50;25.80;;;;;;;;;;5061231;28;20130;-81
2022/11/23 07:36:01;;;;;;;49.22;26.27;;;;;;;;;;5068440;28;20040;-81
2022/11/23 07:38:27;;;;;;;51.83;26.13;;;;;;;;;;5062742;28;20344;-80
2022/11/23 07:41:30;;;;;;;51.40;27.60;;;;;;;;;;5050998;28;20025;-80
2022/11/23 07:43:55;;;;;;;55.20;27.30;;;;;;;;;;5033590;28;20569;-82
2022/11/23 07:46:21;;;;;;;58.60;32.67;;;;;;;;;;5053038;28;20108;-79
2022/11/23 07:48:46;;;;;;;64.03;34.40;;;;;;;;;;5071467;28;20726;-79
2022/11/23 07:51:12;;;;;;;62.47;34.08;;;;;;;;;;5054077;28;20040;-81
2022/11/23 07:53:37;;;;;;;58.30;30.42;;;;;;;;;;5067796;28;20036;-82
2022/11/23 07:56:03;;;;;;;49.70;26.63;;;;;;;;;;5049685;28;20036;-80
2022/11/23 07:58:28;;;;;;;46.83;24.92;;;;;;;;;;5019182;28;20024;-80
2022/11/23 08:00:54;;;;;;;39.78;20.88;;;;;;;;;;5053922;28;20026;-83
2022/11/23 08:03:19;;;;;;;42.78;21.40;;;;;;;;;;5057723;28;20103;-81
2022/11/23 08:05:45;;;;;;;38.60;19.85;;;;;;;;;;5063158;28;20023;-80
2022/11/23 08:08:10;;;;;;;34.45;20.08;;;;;;;;;;5033923;28;20504;-81
2022/11/23 08:10:36;;;;;;;44.67;23.40;;;;;;;;;;5050521;28;20562;-81
2022/11/23 08:13:05;;;;;;;44.42;23.85;;;;;;;;;;5031677;28;20029;-81
2022/11/23 08:15:30;;;;;;;43.75;24.33;;;;;;;;;;5034686;28;20151;-81
2022/11/23 08:17:56;;;;;;;39.53;22.85;;;;;;;;;;5053912;28;20064;-82
2022/11/23 08:20:22;;;;;;;38.42;22.63;;;;;;;;;;5048594;28;20794;-81
2022/11/23 08:22:48;;;;;;;42.60;23.65;;;;;;;;;;5050659;28;20025;-80
2022/11/23 08:25:13;;;;;;;43.55;24.58;;;;;;;;;;5046528;28;20032;-81
2022/11/23 08:27:39;;;;;;;51.55;24.55;;;;;;;;;;5047815;28;20059;-80
2022/11/23 08:30:05;;;;;;;45.83;25.05;;;;;;;;;;5040136;28;20449;-80
2022/11/23 08:32:31;;;;;;;38.55;21.75;;;;;;;;;;5048937;28;20098;-80
2022/11/23 08:34:56;;;;;;;36.53;20.58;;;;;;;;;;5040107;28;20036;-81
2022/11/23 08:37:22;;;;;;;40.63;21.10;;;;;;;;;;5062225;28;20043;-83
2022/11/23 08:39:47;;;;;;;40.05;21.90;;;;;;;;;;5037900;28;20029;-82
2022/11/23 08:42:13;;;;;;;40.08;22.63;;;;;;;;;;5037059;28;20055;-80
2022/11/23 08:44:38;;;;;;;41.88;21.48;;;;;;;;;;5034515;28;20124;-80
2022/11/23 08:47:07;;;;;;;42.95;22.80;;;;;;;;;;5036130;28;20067;-83
2022/11/23 08:49:32;;;;;;;40.70;22.48;;;;;;;;;;5034143;28;20028;-81
2022/11/23 08:51:59;;;;;;;38.00;21.77;;;;;;;;;;5046960;23;20079;-80
2022/11/23 08:54:24;;;;;;;39.45;21.15;;;;;;;;;;5014793;28;20042;-82
2022/11/23 08:56:50;;;;;;;41.95;22.05;;;;;;;;;;5031743;28;20613;-82
2022/11/23 08:59:16;;;;;;;43.20;24.15;;;;;;;;;;5020651;28;20041;-78
2022/11/23 09:01:42;;;;;;;43.97;24.08;;;;;;;;;;4992461;28;20044;-81
2022/11/23 09:04:08;;;;;;;46.08;24.25;;;;;;;;;;5050708;28;20029;-82
2022/11/23 09:06:34;;;;;;;49.85;25.90;;;;;;;;;;5033014;28;20098;-80
2022/11/23 09:08:59;;;;;;;46.58;25.42;;;;;;;;;;4975964;28;20065;-83
2022/11/23 09:11:25;;;;;;;53.70;26.02;;;;;;;;;;5017082;28;20112;-81
2022/11/23 09:13:51;;;;;;;46.70;27.63;;;;;;;;;;5019470;28;20057;-81
2022/11/23 09:16:16;;;;;;;42.83;24.45;;;;;;;;;;5032565;28;20026;-81
2022/11/23 09:18:42;;;;;;;48.78;25.17;;;;;;;;;;5038288;28;20037;-80
2022/11/23 09:21:08;;;;;;;43.53;25.15;;;;;;;;;;5029697;28;20202;-80
2022/11/23 09:23:34;;;;;;;41.88;24.80;;;;;;;;;;4996123;28;20034;-80
2022/11/23 09:26:00;;;;;;;53.05;27.88;;;;;;;;;;5030857;28;20124;-83
2022/11/23 09:28:27;;;;;;;44.00;25.00;;;;;;;;;;5012508;28;20032;-80
2022/11/23 09:30:53;;;;;;;44.10;23.65;;;;;;;;;;5030680;28;20037;-80
2022/11/23 09:33:19;;;;;;;41.03;22.40;;;;;;;;;;5031364;28;20029;-83
2022/11/23 09:35:44;;;;;;;41.08;23.73;;;;;;;;;;5015215;28;20029;-81
2022/11/23 09:38:10;;;;;;;43.25;23.67;;;;;;;;;;5042854;28;20029;-81
2022/11/23 09:40:37;;;;;;;40.10;22.88;;;;;;;;;;5034945;28;20447;-82
2022/11/23 09:43:08;;;;;;;46.55;22.50;;;;;;;;;;5020358;28;20022;-81
2022/11/23 09:45:45;;;;;;;43.20;22.80;;;;;;;;;;5038126;28;20067;-81
2022/11/23 09:48:30;;;;;;;49.03;22.80;;;;;;;;;;5037516;28;20037;-80
2022/11/23 09:51:00;;;;;;;41.90;22.92;;;;;;;;;;5041176;28;20067;-81
2022/11/23 09:53:39;;;;;;;38.97;22.60;;;;;;;;;;4995391;28;20049;-81
2022/11/23 09:56:05;;;;;;;42.95;23.63;;;;;;;;;;5006051;28;20061;-80
2022/11/23 09:58:35;;;;;;;50.22;26.27;;;;;;;;;;4972612;28;20079;-79
2022/11/23 10:01:10;;;;;;;43.83;23.92;;;;;;;;;;4966565;28;20033;-83
2022/11/23 10:03:37;;;;;;;46.15;25.48;;;;;;;;;;5015060;28;20036;-81
2022/11/23 10:06:33;;;;;;;43.13;23.48;;;;;;;;;;4981683;28;20351;-82
2022/11/23 10:09:14;;;;;;;46.13;25.30;;;;;;;;;;4990249;28;20470;-79
2022/11/23 10:11:58;;;;;;;;;;;;;;;;;;5014835;28;20033;-82
2022/11/23 10:15:08;;;;;;;45.05;23.70;;;;;;;;;;5015205;28;20211;-80
2022/11/23 10:17:59;;;;;;;40.50;21.67;;;;;;;;;;4928424;29;20505;-80
2022/11/23 10:21:35;;;;;;;42.42;22.60;;;;;;;;;;4929432;29;20047;-80
2022/11/23 10:24:07;;;;;;;42.00;22.35;;;;;;;;;;4955843;29;20031;-80
2022/11/23 10:26:35;;;;;;;41.38;22.40;;;;;;;;;;5005477;28;20437;-80
2022/11/23 10:29:19;;;;;;;44.05;22.17;;;;;;;;;;4998120;28;20030;-79
2022/11/23 10:31:48;;;;;;;46.28;23.45;;;;;;;;;;5016128;28;20180;-80
2022/11/23 10:34:18;;;;;;;47.92;24.17;;;;;;;;;;4999903;28;20125;-81
2022/11/23 10:36:43;;;;;;;;;;;;;;;;;;5002318;28;20030;-80
2022/11/23 10:39:15;;;;;;;120.72;62.03;;;;;;;;;;4980302;28;21902;-82
2022/11/23 10:41:41;;;;;;;65.25;33.97;;;;;;;;;;4980975;28;20037;-81
2022/11/23 10:44:46;;;;;;;48.72;27.20;;;;;;;;;;4995611;28;20050;-81
2022/11/23 10:47:11;;;;;;;44.33;23.95;;;;;;;;;;4987867;28;20044;-81
2022/11/23 10:49:37;;;;;;;44.17;24.98;;;;;;;;;;4979450;28;20132;-81
2022/11/23 10:52:28;;;;;;;50.38;27.77;;;;;;;;;;5001883;28;20106;-82
2022/11/23 10:54:55;;;;;;;49.40;25.95;;;;;;;;;;5031358;28;20029;-81
2022/11/23 10:57:27;;;;;;;49.22;24.30;;;;;;;;;;5023103;28;20021;-80
2022/11/23 11:00:01;;;;;;;48.03;24.35;;;;;;;;;;5055382;28;20029;-82
2022/11/23 11:02:27;;;;;;;48.58;23.52;;;;;;;;;;5048955;28;20441;-81
2022/11/23 11:05:26;;;;;;;54.10;29.00;;;;;;;;;;5033451;28;20057;-81
2022/11/23 11:07:55;;;;;;;46.15;24.60;;;;;;;;;;5014697;28;20017;-81
2022/11/23 11:10:32;;;;;;;45.15;24.02;;;;;;;;;;5030274;28;20087;-80
2022/11/23 11:12:57;;;;;;;46.00;24.20;;;;;;;;;;4998904;28;20363;-80
2022/11/23 11:15:23;;;;;;;43.10;22.75;;;;;;;;;;5027115;28;20036;-81
2022/11/23 11:17:56;;;;;;;38.25;21.13;;;;;;;;;;5018799;28;20029;-81
2022/11/23 11:20:32;;;;;;;40.33;21.20;;;;;;;;;;5034983;28;20052;-80
2022/11/23 11:23:00;;;;;;;39.35;21.25;;;;;;;;;;5034354;28;20304;-81
2022/11/23 11:25:35;;;;;;;39.22;21.33;;;;;;;;;;5035537;28;20037;-80
2022/11/23 11:28:05;;;;;;;39.67;21.50;;;;;;;;;;5018190;28;20075;-81
2022/11/23 11:31:07;;;;;;;42.67;22.55;;;;;;;;;;5002056;28;20037;-79
2022/11/23 11:33:39;;;;;;;44.63;24.63;;;;;;;;;;5029179;28;20116;-79
2022/11/23 11:36:04;;;;;;;57.03;27.58;;;;;;;;;;5039806;28;20181;-80
2022/11/23 11:38:35;;;;;;;46.17;24.40;;;;;;;;;;5015735;28;20452;-79
2022/11/23 11:41:08;;;;;;;39.83;20.73;;;;;;;;;;5031761;28;20098;-79
2022/11/23 11:44:13;;;;;;;39.88;20.75;;;;;;;;;;5034687;28;20067;-80
2022/11/23 11:46:41;;;;;;;47.67;22.55;;;;;;;;;;5034620;28;20123;-81
2022/11/23 11:49:17;;;;;;;55.42;26.85;;;;;;;;;;5032865;28;20025;-79
2022/11/23 11:51:55;;;;;;;58.65;28.17;;;;;;;;;;5050700;28;20037;-81
2022/11/23 11:54:25;;;;;;;60.72;28.42;;;;;;;;;;5053572;28;20086;-80
2022/11/23 11:56:53;;;;;;;57.47;27.27;;;;;;;;;;5018507;28;20189;-80
2022/11/23 11:59:41;;;;;;;60.03;27.55;;;;;;;;;;5034997;28;20037;-82
2022/11/23 12:02:28;;;;;;;58.17;26.58;;;;;;;;;;5018426;28;20033;-82
2022/11/23 12:04:55;;;;;;;75.97;33.28;;;;;;;;;;5035668;28;20127;-80
2022/11/23 12:07:50;;;;;;;68.93;30.35;;;;;;;;;;5036294;28;20024;-80
2022/11/23 12:10:41;;;;;;;45.33;23.30;;;;;;;;;;5034132;28;20493;-81
2022/11/23 12:13:12;;;;;;;41.80;22.60;;;;;;;;;;5051094;28;20041;-81
2022/11/23 12:15:40;;;;;;;39.67;21.88;;;;;;;;;;5037495;28;20036;-81
2022/11/23 12:18:14;;;;;;;53.78;27.25;;;;;;;;;;5037125;28;20335;-82
2022/11/23 12:20:49;;;;;;;81.93;40.15;;;;;;;;;;5036102;28;20442;-84
2022/11/23 12:23:43;;;;;;;62.60;30.80;;;;;;;;;;5035647;28;20071;-85
2022/11/23 12:26:18;;;;;;;72.38;36.25;;;;;;;;;;5002063;28;20021;-82
2022/11/23 12:28:49;;;;;;;65.05;30.98;;;;;;;;;;5035248;28;20025;-81
2022/11/23 12:31:38;;;;;;;54.75;27.23;;;;;;;;;;5020816;28;20324;-81
2022/11/23 12:34:22;;;;;;;48.97;24.42;;;;;;;;;;5030919;28;20049;-80
2022/11/23 12:36:57;;;;;;;43.05;21.73;;;;;;;;;;5014212;28;20036;-81
2022/11/23 12:39:48;;;;;;;34.45;18.33;;;;;;;;;;5014607;28;20379;-80
2022/11/23 12:42:16;;;;;;;35.65;18.98;;;;;;;;;;5015001;28;20087;-80
2022/11/23 12:44:48;;;;;;;72.45;35.03;;;;;;;;;;5014196;28;20025;-81
2022/11/23 12:47:36;;;;;;;43.28;22.13;;;;;;;;;;5029875;28;20124;-80
2022/11/23 12:50:31;;;;;;;43.75;22.20;;;;;;;;;;5037021;28;20021;-81
2022/11/23 12:53:11;;;;;;;43.20;22.75;;;;;;;;;;5011907;28;20053;-81
2022/11/23 12:55:53;;;;;;;44.20;22.70;;;;;;;;;;5032088;28;20050;-80
2022/11/23 12:58:28;;;;;;;43.63;22.00;;;;;;;;;;5013303;28;20041;-80
2022/11/23 13:00:55;;;;;;;45.38;22.52;;;;;;;;;;5015401;28;20052;-81
2022/11/23 13:04:01;;;;;;;45.22;23.17;;;;;;;;;;5014767;28;20041;-80
2022/11/23 13:06:36;;;;;;;51.92;24.30;;;;;;;;;;5001552;28;20451;-80
2022/11/23 13:09:31;;;;;;;49.45;24.17;;;;;;;;;;5041365;28;20030;-81
2022/11/23 13:12:02;;;;;;;37.03;20.83;;;;;;;;;;5030547;28;20049;-81
2022/11/23 13:14:30;;;;;;;44.97;21.38;;;;;;;;;;5016552;28;20038;-81
2022/11/23 13:17:02;;;;;;;58.97;27.65;;;;;;;;;;5015903;28;20126;-80
2022/11/23 13:19:34;;;;;;;62.75;29.58;;;;;;;;;;5017141;28;20044;-84
2022/11/23 13:22:02;;;;;;;51.47;26.50;;;;;;;;;;5033202;28;20444;-83
2022/11/23 13:24:37;;;;;;;48.35;24.38;;;;;;;;;;4999579;28;20062;-80
2022/11/23 13:27:14;;;;;;;49.28;26.25;;;;;;;;;;5017324;28;20026;-80
2022/11/23 13:29:49;;;;;;;43.72;23.17;;;;;;;;;;5034967;28;20029;-81
2022/11/23 13:32:32;;;;;;;54.67;28.05;;;;;;;;;;5034230;28;20029;-81
2022/11/23 13:34:58;;;;;;;107.75;56.92;;;;;;;;;;5033617;28;20030;-80
2022/11/23 13:37:23;;;;;;;60.50;29.23;;;;;;;;;;5033874;28;20112;-80
2022/11/23 13:39:49;;;;;;;46.10;23.75;;;;;;;;;;5033195;28;20036;-83
2022/11/23 13:42:15;;;;;;;49.03;25.17;;;;;;;;;;5016973;28;20094;-81
2022/11/23 13:44:40;;;;;;;49.70;24.95;;;;;;;;;;5031582;28;20026;-81
2022/11/23 13:47:06;;;;;;;46.22;22.63;;;;;;;;;;5033943;28;20033;-80
2022/11/23 13:49:34;;;;;;;42.22;21.90;;;;;;;;;;5034656;28;20022;-79
2022/11/23 13:52:27;;;;;;;43.40;22.50;;;;;;;;;;5031111;28;20053;-82
2022/11/23 13:55:08;;;;;;;38.25;20.80;;;;;;;;;;5015040;28;20041;-82
2022/11/23 13:57:33;;;;;;;39.83;21.30;;;;;;;;;;5014958;28;20080;-79
2022/11/23 14:00:36;;;;;;;41.03;21.85;;;;;;;;;;5037019;28;20423;-79
2022/11/23 14:03:39;;;;;;;41.53;21.58;;;;;;;;;;5033404;28;20410;-81
2022/11/23 14:06:33;;;;;;;42.92;23.35;;;;;;;;;;5040756;28;20034;-80
2022/11/23 14:09:21;;;;;;;49.50;24.38;;;;;;;;;;5029887;28;20518;-80
2022/11/23 14:11:52;;;;;;;54.08;24.63;;;;;;;;;;5032408;28;20128;-80
2022/11/23 14:14:22;;;;;;;;;;;;;;;;;;5015981;28;20042;-80
2022/11/23 14:17:24;;;;;;;52.67;25.38;;;;;;;;;;5015929;28;19917;-80
2022/11/23 14:20:08;;;;;;;67.80;38.67;;;;;;;;;;5000486;28;20084;-80
2022/11/23 14:22:44;;;;;;;50.63;26.13;;;;;;;;;;5033449;28;20115;-83
2022/11/23 14:25:25;;;;;;;53.63;27.02;;;;;;;;;;5018345;28;20037;-78
2022/11/23 14:28:11;;;;;;;59.33;31.63;;;;;;;;;;5039709;28;20311;-81
2022/11/23 14:30:42;;;;;;;61.72;31.83;;;;;;;;;;5019233;28;20052;-81
2022/11/23 14:33:18;;;;;;;71.82;35.17;;;;;;;;;;5037042;28;20025;-80
2022/11/23 14:36:00;;;;;;;69.80;34.10;;;;;;;;;;5035693;28;20032;-80